Gallman, MS (39077)

8:11 AM CDT on July 29, 2014 (GMT -0500)
Tank (KMSCRYST3) Elev 338 ft | 32.09 °N, 90.43 °W | Change Station

Current weather conditions updated 2 minutes ago

Clear
Clear
67.8 °F
Feels Like 67.8 °F
N
0.0
Wind Variable Wind from West

Today is forecast to be Cooler than yesterday.

Today
High -- | Low -- °F
--% Chance of Precip.
Yesterday
High -- | Low -- °F
Precip. -- in
6:15 AM 8:00 PM
Waxing Crescent, 6% visible
Pressure 30.09 in
Visibility 9.0 miles
Clouds Clear
Dew Point 68 °F
Humidity 99%
Rainfall 0.00 in
Snow Depth Not available.
UV 1 out of 12
Pollen 3.90 out of 12
Air Quality Not available.
Flu Activity Not available.
METAR K1R7 291255Z AUTO 00000KT 9SM CLR 22/20 A3009 RMK AO2

More Conditions Fewer Conditions

Pressure 30.09 in
Visibility 9.0 miles
Clouds Clear
Dew Point 68 °F
Humidity 99%
Rainfall 0.00 in
Snow Depth Not available.
UV 1 out of 12
Pollen 3.90 out of 12
Air Quality Not available.
Flu Activity Not available.
METAR K1R7 291255Z AUTO 00000KT 9SM CLR 22/20 A3009 RMK AO2

More Conditions Fewer Conditions

10-Day Weather Forecast

Almanac

Astronomy

Jul. 29, 2014 Rise Set
Actual Time 6:15 AM CDT 8:00 PM CDT
Civil Twilight 5:48 AM CDT 8:27 PM CDT
Nautical Twilight 5:15 AM CDT 8:59 PM CDT
Astronomical Twilight 4:41 AM CDT 9:33 PM CDT
Moon 8:39 AM CDT 9:27 PM CDT
Length of Visible Light 14h 39m
Length of Day
13h 45m
Tomorrow will be 1m 23s shorter.
Waxing Crescent, 6% of the Moon is Illuminated
Today
Waxing Crescent
Aug 3
First Quarter
Aug 10
Full
Aug 17
Last Quarter
Aug 25
New

Today's Extremes

State Highs State Lows

Community

WunderPhotos

Upload Photos

1,738,713 photos uploaded!

Nearby

Snow Depth

Station Depth Elevation
No new snow has been reported.

Earthquake Activity

City Distance Mag. Time & Date
No recent earthquake activity has been reported nearby.
Minimum magnitude displayed is 2.5.

Coastal Water Temperatures

Place Temperature
No Stations Reporting

Nearby Weather Stations

Station Location Temp. Heat Index Dew Point Humidity Wind Precip. Elev Updated Type
Tank, Crystal Springs, MS 67.8 °F - 68 °F 99% West  at  0.0 mph - / hr 338 ft 8:09 AM CDT Normal
Stronghope, Wesson, MS 70.5 °F - 69 °F 96% WNW  at  0.0 mph 0.00 in / hr 269 ft 8:11 AM CDT Rapid Fire
Downtown (Perkins Bldg), Brookhaven, MS 78.1 °F 80 °F 66 °F 67% NE  at  6.9 mph 0.00 in / hr 473 ft 8:09 AM CDT Normal

Show More Stations Show Fewer Stations